createdAt,value
2018-09-03T00:00:44.184Z,9.33
2018-09-03T00:03:12.389Z,10.30
2018-09-03T00:05:40.567Z,9.17
2018-09-03T00:08:08.738Z,9.47
2018-09-03T00:10:36.943Z,9.23
2018-09-03T00:13:05.271Z,9.03
2018-09-03T00:15:33.439Z,9.50
2018-09-03T00:18:01.631Z,9.90
2018-09-03T00:20:29.819Z,9.73
2018-09-03T00:22:57.992Z,10.50
2018-09-03T00:25:26.164Z,9.90
2018-09-03T00:27:54.379Z,10.27
2018-09-03T00:30:22.574Z,10.53
2018-09-03T00:32:55.927Z,10.13
2018-09-03T00:35:29.436Z,10.10
2018-09-03T00:38:02.899Z,9.93
2018-09-03T00:40:36.392Z,9.57
2018-09-03T00:43:09.780Z,10.00
2018-09-03T00:45:43.368Z,10.70
2018-09-03T00:48:11.544Z,10.60
2018-09-03T00:50:39.715Z,10.40
2018-09-03T00:53:07.915Z,9.70
2018-09-03T00:55:36.087Z,9.83
2018-09-03T00:58:04.311Z,10.60
2018-09-03T01:00:32.689Z,10.70
2018-09-03T01:03:00.873Z,10.00
2018-09-03T01:05:29.056Z,9.83
2018-09-03T01:07:57.247Z,10.20
2018-09-03T01:10:25.438Z,10.30
2018-09-03T01:12:53.599Z,10.17
2018-09-03T01:15:21.792Z,10.10
2018-09-03T01:17:49.963Z,10.30
2018-09-03T01:20:18.131Z,10.30
2018-09-03T01:22:46.337Z,10.17
2018-09-03T01:25:14.504Z,10.80
2018-09-03T01:27:42.731Z,10.50
2018-09-03T01:30:10.930Z,10.53
2018-09-03T01:32:39.107Z,10.80
2018-09-03T01:35:07.320Z,10.63
2018-09-03T01:37:35.489Z,10.67
2018-09-03T01:40:03.667Z,10.43
2018-09-03T01:42:31.859Z,10.73
2018-09-03T01:45:00.077Z,10.33
2018-09-03T01:47:28.281Z,10.03
2018-09-03T01:49:56.472Z,10.63
2018-09-03T01:52:24.661Z,9.73
2018-09-03T01:54:52.852Z,9.90
2018-09-03T01:57:21.046Z,10.90
2018-09-03T01:59:49.228Z,10.70
2018-09-03T02:02:17.433Z,10.20
2018-09-03T02:04:45.633Z,10.17
2018-09-03T02:07:13.837Z,9.50
2018-09-03T02:09:42.021Z,10.87
2018-09-03T02:12:12.221Z,9.70
2018-09-03T02:14:40.928Z,10.07
2018-09-03T02:17:09.928Z,9.97
2018-09-03T02:19:38.144Z,10.67
2018-09-03T02:22:06.567Z,10.77
2018-09-03T02:24:34.753Z,9.43
2018-09-03T02:27:02.963Z,9.50
2018-09-03T02:29:31.213Z,9.73
2018-09-03T02:31:59.453Z,9.70
2018-09-03T02:34:27.624Z,9.13
2018-09-03T02:36:55.809Z,10.13
2018-09-03T02:39:24.010Z,10.80
2018-09-03T02:41:52.187Z,10.03
2018-09-03T02:44:20.389Z,9.83
2018-09-03T02:46:48.574Z,10.27
2018-09-03T02:49:16.762Z,10.10
2018-09-03T02:51:44.969Z,10.00
2018-09-03T02:54:13.163Z,9.70
2018-09-03T02:56:41.331Z,9.70
2018-09-03T02:59:09.503Z,9.80
2018-09-03T03:01:37.678Z,9.43
2018-09-03T03:04:05.935Z,9.70
2018-09-03T03:06:34.122Z,9.73
2018-09-03T03:09:02.307Z,10.33
2018-09-03T03:11:30.492Z,9.70
2018-09-03T03:13:58.691Z,10.17
2018-09-03T03:16:26.869Z,10.20
2018-09-03T03:18:55.058Z,9.63
2018-09-03T03:21:23.243Z,9.13
2018-09-03T03:23:51.425Z,8.90
2018-09-03T03:26:19.595Z,8.87
2018-09-03T03:28:47.771Z,9.70
2018-09-03T03:31:15.973Z,9.33
2018-09-03T03:33:44.166Z,9.43
2018-09-03T03:36:12.356Z,9.30
2018-09-03T03:38:40.555Z,9.43
2018-09-03T03:41:08.723Z,9.80
2018-09-03T03:43:36.911Z,9.87
2018-09-03T03:46:05.089Z,9.87
2018-09-03T03:48:33.283Z,10.50
2018-09-03T03:51:01.456Z,9.47
2018-09-03T03:53:29.632Z,9.30
2018-09-03T03:55:57.807Z,9.73
2018-09-03T03:58:26.123Z,10.37
2018-09-03T04:00:54.299Z,10.40
2018-09-03T04:03:22.495Z,9.33
2018-09-03T04:05:50.677Z,8.83
2018-09-03T04:08:18.835Z,9.10
2018-09-03T04:10:46.998Z,9.30
2018-09-03T04:13:15.171Z,9.30
2018-09-03T04:15:43.331Z,9.10
2018-09-03T04:18:11.520Z,9.07
2018-09-03T04:20:39.711Z,9.27
2018-09-03T04:23:07.997Z,8.43
2018-09-03T04:25:36.076Z,10.13
2018-09-03T04:28:04.280Z,8.33
2018-09-03T04:30:32.473Z,8.50
2018-09-03T04:33:00.704Z,10.03
2018-09-03T04:35:28.904Z,8.80
2018-09-03T04:37:57.091Z,8.67
2018-09-03T04:40:25.268Z,7.87
2018-09-03T04:42:53.450Z,8.77
2018-09-03T04:45:21.673Z,7.30
2018-09-03T04:47:49.871Z,8.60
2018-09-03T04:50:18.084Z,8.90
2018-09-03T04:52:46.273Z,8.60
2018-09-03T04:55:14.628Z,8.00
2018-09-03T04:57:42.795Z,7.90
2018-09-03T05:00:11.014Z,8.40
2018-09-03T05:02:39.215Z,9.37
2018-09-03T05:05:07.399Z,8.93
2018-09-03T05:07:35.611Z,10.10
2018-09-03T05:10:03.882Z,8.90
2018-09-03T05:12:32.066Z,8.67
2018-09-03T05:15:00.268Z,8.93
2018-09-03T05:17:28.468Z,10.10
2018-09-03T05:19:56.642Z,10.17
2018-09-03T05:22:24.824Z,10.00
2018-09-03T05:24:53.052Z,9.87
2018-09-03T05:27:21.220Z,10.07
2018-09-03T05:29:49.414Z,10.10
2018-09-03T05:32:17.582Z,9.37
2018-09-03T05:34:45.848Z,9.90
2018-09-03T05:37:14.032Z,9.67
2018-09-03T05:39:42.212Z,9.80
2018-09-03T05:42:10.392Z,9.70
2018-09-03T05:44:38.569Z,10.27
2018-09-03T05:47:07.010Z,10.67
2018-09-03T05:49:35.447Z,9.90
2018-09-03T05:52:03.652Z,9.60
2018-09-03T05:54:31.890Z,10.43
2018-09-03T05:57:00.171Z,9.90
2018-09-03T05:59:28.356Z,9.47
2018-09-03T06:01:56.944Z,9.37
2018-09-03T06:04:25.134Z,9.60
2018-09-03T06:06:53.295Z,10.90
2018-09-03T06:09:22.294Z,11.40
2018-09-03T06:11:50.480Z,9.70
2018-09-03T06:14:18.742Z,11.20
2018-09-03T06:16:46.985Z,11.57
2018-09-03T06:19:15.237Z,10.33
2018-09-03T06:21:43.416Z,11.40
2018-09-03T06:24:11.589Z,10.87
2018-09-03T06:26:39.814Z,11.07
2018-09-03T06:29:07.944Z,11.83
2018-09-03T06:31:36.154Z,11.37
2018-09-03T06:34:04.776Z,11.93
2018-09-03T06:36:32.968Z,9.63
2018-09-03T06:39:01.207Z,10.60
2018-09-03T06:41:29.364Z,10.13
2018-09-03T06:43:57.569Z,10.90
2018-09-03T06:46:25.740Z,10.00
2018-09-03T06:48:53.957Z,12.20
2018-09-03T06:51:22.128Z,10.83
2018-09-03T06:53:50.355Z,11.23
2018-09-03T06:56:18.531Z,11.17
2018-09-03T06:58:46.739Z,10.90
2018-09-03T07:01:14.978Z,10.43
2018-09-03T07:03:43.844Z,11.27
2018-09-03T07:06:12.219Z,11.47
2018-09-03T07:08:40.801Z,12.23
2018-09-03T07:11:09.896Z,12.20
2018-09-03T07:13:38.066Z,11.67
2018-09-03T07:16:06.262Z,13.80
2018-09-03T07:18:34.480Z,11.90
2018-09-03T07:21:02.620Z,11.80
2018-09-03T07:23:30.795Z,11.90
2018-09-03T07:25:58.968Z,11.70
2018-09-03T07:28:27.164Z,12.00
2018-09-03T07:30:55.599Z,12.73
2018-09-03T07:33:23.775Z,12.80
2018-09-03T07:35:51.982Z,13.30
2018-09-03T07:38:20.171Z,11.90
2018-09-03T07:40:48.359Z,13.10
2018-09-03T07:43:16.573Z,12.57
2018-09-03T07:45:44.784Z,12.03
2018-09-03T07:48:13.003Z,12.40
2018-09-03T07:50:41.183Z,12.80
2018-09-03T07:53:09.351Z,12.13
2018-09-03T07:55:37.541Z,12.63
2018-09-03T07:58:06.277Z,12.70
2018-09-03T08:00:34.453Z,13.10
2018-09-03T08:03:02.627Z,12.23
2018-09-03T08:05:30.829Z,12.17
2018-09-03T08:07:59.035Z,12.27
2018-09-03T08:10:27.223Z,13.83
2018-09-03T08:12:55.461Z,12.83
2018-09-03T08:15:23.567Z,12.97
2018-09-03T08:17:51.759Z,12.53
2018-09-03T08:20:19.940Z,12.33
2018-09-03T08:22:48.146Z,14.30
2018-09-03T08:25:16.323Z,13.27
2018-09-03T08:27:44.491Z,13.53
2018-09-03T08:30:12.790Z,13.43
2018-09-03T08:32:40.909Z,14.10
2018-09-03T08:35:09.265Z,14.60
2018-09-03T08:37:37.440Z,13.67
2018-09-03T08:40:06.007Z,12.83
2018-09-03T08:42:34.133Z,14.50
2018-09-03T08:45:02.329Z,13.53
2018-09-03T08:47:30.500Z,14.13
2018-09-03T08:49:58.689Z,13.80
2018-09-03T08:52:26.871Z,13.20
2018-09-03T08:54:55.063Z,14.50
2018-09-03T08:57:23.484Z,14.50
2018-09-03T08:59:51.659Z,14.17
2018-09-03T09:02:19.838Z,14.03
2018-09-03T09:04:48.022Z,14.60
2018-09-03T09:07:16.235Z,13.97
2018-09-03T09:09:44.423Z,13.27
2018-09-03T09:12:12.661Z,15.20
2018-09-03T09:14:40.864Z,14.73
2018-09-03T09:17:09.038Z,14.10
2018-09-03T09:19:37.226Z,13.97
2018-09-03T09:22:05.403Z,12.30
2018-09-03T09:24:33.644Z,14.20
2018-09-03T09:27:01.801Z,13.53
2018-09-03T09:29:29.984Z,13.50
2018-09-03T09:31:58.173Z,13.20
2018-09-03T09:34:26.359Z,13.90
2018-09-03T09:36:54.621Z,13.20
2018-09-03T09:39:22.723Z,13.30
2018-09-03T09:41:50.899Z,14.47
2018-09-03T09:44:19.071Z,14.80
2018-09-03T09:46:47.274Z,14.43
2018-09-03T09:49:15.568Z,13.60
2018-09-03T09:51:43.738Z,14.83
2018-09-03T09:54:11.930Z,14.70
2018-09-03T09:56:40.128Z,14.00
2018-09-03T09:59:08.319Z,13.37
2018-09-03T10:01:37.947Z,13.77
2018-09-03T10:04:06.454Z,13.23
2018-09-03T10:06:34.626Z,14.37
2018-09-03T10:09:02.941Z,14.53
2018-09-03T10:11:31.116Z,14.40
2018-09-03T10:13:59.495Z,14.17
2018-09-03T10:16:27.684Z,12.50
2018-09-03T10:18:55.896Z,13.30
2018-09-03T10:21:24.086Z,14.03
2018-09-03T10:23:52.289Z,13.20
2018-09-03T10:26:20.560Z,14.00
2018-09-03T10:28:48.685Z,13.70
2018-09-03T10:31:17.456Z,14.07
2018-09-03T10:33:45.796Z,13.90
2018-09-03T10:36:14.030Z,15.27
2018-09-03T10:38:42.229Z,14.40
2018-09-03T10:41:10.420Z,12.23
2018-09-03T10:43:38.603Z,11.90
2018-09-03T10:46:06.855Z,14.00
2018-09-03T10:48:35.047Z,14.23
2018-09-03T10:51:03.236Z,13.60
2018-09-03T10:53:31.467Z,12.67
2018-09-03T10:55:59.652Z,14.30
2018-09-03T10:58:27.787Z,13.80
2018-09-03T11:00:56.012Z,13.30
2018-09-03T11:03:24.345Z,12.70
2018-09-03T11:05:52.535Z,11.80
2018-09-03T11:08:20.736Z,14.10
2018-09-03T11:10:48.929Z,14.40
2018-09-03T11:13:17.110Z,14.37
2018-09-03T11:15:45.407Z,13.20
2018-09-03T11:18:13.595Z,12.47
2018-09-03T11:20:41.800Z,14.20
2018-09-03T11:23:09.986Z,15.00
2018-09-03T11:25:38.172Z,14.60
2018-09-03T11:28:06.383Z,15.00
2018-09-03T11:30:34.583Z,15.03
2018-09-03T11:33:03.622Z,14.00
2018-09-03T11:35:31.839Z,13.70
2018-09-03T11:38:00.254Z,13.83
2018-09-03T11:40:28.418Z,16.07
2018-09-03T11:42:56.623Z,14.83
2018-09-03T11:45:24.882Z,13.97
2018-09-03T11:47:53.065Z,15.10
2018-09-03T11:50:21.672Z,12.20
2018-09-03T11:52:49.876Z,14.20
2018-09-03T11:55:18.042Z,14.17
2018-09-03T11:57:46.258Z,15.43
2018-09-03T12:00:19.716Z,16.53
2018-09-03T12:02:47.933Z,15.73
2018-09-03T12:05:17.366Z,15.70
2018-09-03T12:07:45.704Z,16.57
2018-09-03T12:10:13.894Z,16.17
2018-09-03T12:12:42.265Z,14.60
2018-09-03T12:15:48.919Z,14.60
2018-09-03T12:18:17.195Z,15.93
2018-09-03T12:20:45.407Z,16.27
2018-09-03T12:23:14.571Z,16.63
2018-09-03T12:25:42.795Z,15.70
2018-09-03T12:28:10.967Z,16.57
2018-09-03T12:30:39.175Z,15.93
2018-09-03T12:33:07.379Z,17.13
2018-09-03T12:35:35.587Z,15.40
2018-09-03T12:38:03.962Z,15.43
2018-09-03T12:40:32.205Z,14.10
2018-09-03T12:43:00.445Z,15.40
2018-09-03T12:45:33.939Z,15.57
2018-09-03T12:48:02.116Z,14.03
2018-09-03T12:50:30.299Z,13.87
2018-09-03T12:52:58.478Z,14.27
2018-09-03T12:55:26.679Z,13.57
2018-09-03T12:57:54.871Z,14.67
2018-09-03T13:00:23.064Z,15.83
2018-09-03T13:02:51.527Z,16.50
2018-09-03T13:05:20.358Z,16.83
2018-09-03T13:07:48.968Z,16.47
2018-09-03T13:10:17.153Z,15.67
2018-09-03T13:12:45.431Z,16.77
2018-09-03T13:15:14.738Z,15.60
2018-09-03T13:17:43.558Z,15.90
2018-09-03T13:20:11.935Z,17.37
2018-09-03T13:22:40.134Z,15.77
2018-09-03T13:25:08.339Z,17.70
2018-09-03T13:27:36.530Z,17.10
2018-09-03T13:30:05.389Z,15.43
2018-09-03T13:32:33.760Z,17.80
2018-09-03T13:35:02.971Z,17.40
2018-09-03T13:37:31.826Z,18.33
2018-09-03T13:40:00.183Z,17.57
2018-09-03T13:42:29.464Z,17.00
2018-09-03T13:44:58.055Z,17.97
2018-09-03T13:47:26.643Z,18.30
2018-09-03T13:49:54.916Z,18.60
2018-09-03T13:52:23.147Z,18.27
2018-09-03T13:54:51.357Z,18.57
2018-09-03T13:57:19.639Z,19.00
2018-09-03T13:59:47.844Z,19.53
2018-09-03T14:02:16.051Z,19.63
2018-09-03T14:04:44.358Z,18.70
2018-09-03T14:07:12.566Z,17.87
2018-09-03T14:09:40.834Z,17.57
2018-09-03T14:12:09.532Z,18.47
2018-09-03T14:14:37.792Z,20.33
2018-09-03T14:17:06.347Z,18.77
2018-09-03T14:19:34.583Z,18.30
2018-09-03T14:22:02.823Z,18.10
2018-09-03T14:24:31.021Z,18.50
2018-09-03T14:26:59.242Z,18.37
2018-09-03T14:29:27.434Z,17.40
2018-09-03T14:31:55.624Z,18.37
2018-09-03T14:34:23.803Z,19.50
2018-09-03T14:36:52.050Z,20.60
2018-09-03T14:39:20.195Z,20.37
2018-09-03T14:41:48.401Z,20.73
2018-09-03T14:44:16.574Z,21.47
2018-09-03T14:46:44.755Z,21.57
2018-09-03T14:49:12.944Z,20.73
2018-09-03T14:51:41.141Z,21.23
2018-09-03T14:54:09.319Z,23.57
2018-09-03T14:56:37.494Z,22.20
2018-09-03T14:59:05.712Z,23.13
2018-09-03T15:01:34.136Z,21.23
2018-09-03T15:04:02.438Z,20.03
2018-09-03T15:06:30.547Z,23.00
2018-09-03T15:08:58.750Z,22.80
2018-09-03T15:11:27.039Z,22.50
2018-09-03T15:13:58.892Z,22.73
2018-09-03T15:16:29.622Z,21.67
2018-09-03T15:18:58.067Z,21.70
2018-09-03T15:21:26.296Z,21.87
2018-09-03T15:23:54.480Z,21.73
2018-09-03T15:26:22.805Z,22.47
2018-09-03T15:28:51.054Z,23.30
2018-09-03T15:31:19.513Z,21.93
2018-09-03T15:33:48.384Z,21.93
2018-09-03T15:36:16.695Z,21.20
2018-09-03T15:38:44.882Z,21.83
2018-09-03T15:41:13.171Z,20.70
2018-09-03T15:43:41.389Z,22.53
2018-09-03T15:46:10.090Z,22.03
2018-09-03T15:48:38.391Z,22.17
2018-09-03T15:51:06.687Z,21.70
2018-09-03T15:53:36.151Z,23.53
2018-09-03T15:56:04.731Z,21.67
2018-09-03T15:58:32.927Z,23.80
2018-09-03T16:01:01.335Z,22.37
2018-09-03T16:03:29.831Z,23.90
2018-09-03T16:05:58.427Z,23.73
2018-09-03T16:08:26.634Z,22.67
2018-09-03T16:10:55.686Z,22.73
2018-09-03T16:13:24.419Z,22.23
2018-09-03T16:15:53.378Z,22.33
2018-09-03T16:18:21.756Z,21.73
2018-09-03T16:20:50.043Z,21.40
2018-09-03T16:23:18.199Z,21.20
2018-09-03T16:25:46.443Z,20.70
2018-09-03T16:28:14.686Z,20.57
2018-09-03T16:30:42.867Z,20.57
2018-09-03T16:33:11.071Z,19.60
2018-09-03T16:35:39.992Z,19.60
2018-09-03T16:38:08.204Z,18.47
2018-09-03T16:40:36.416Z,20.30
2018-09-03T16:43:04.667Z,20.07
2018-09-03T16:45:32.932Z,19.77
2018-09-03T16:48:01.189Z,19.90
2018-09-03T16:50:29.420Z,21.30
2018-09-03T16:52:57.703Z,20.43
2018-09-03T16:55:25.948Z,20.70
2018-09-03T16:57:54.194Z,22.17
2018-09-03T17:00:22.410Z,21.80
2018-09-03T17:02:50.606Z,22.17
2018-09-03T17:05:19.583Z,21.80
2018-09-03T17:07:47.956Z,22.90
2018-09-03T17:10:17.809Z,21.50
2018-09-03T17:12:46.071Z,21.73
2018-09-03T17:15:14.260Z,23.30
2018-09-03T17:17:42.524Z,23.73
2018-09-03T17:20:10.910Z,23.83
2018-09-03T17:22:39.158Z,23.17
2018-09-03T17:25:07.371Z,22.17
2018-09-03T17:27:37.000Z,20.60
2018-09-03T17:30:05.707Z,22.63
2018-09-03T17:32:34.843Z,21.20
2018-09-03T17:35:03.111Z,21.47
2018-09-03T17:37:31.317Z,20.03
2018-09-03T17:39:59.520Z,19.97
2018-09-03T17:42:27.695Z,21.63
2018-09-03T17:44:55.903Z,20.67
2018-09-03T17:47:24.087Z,20.27
2018-09-03T17:49:52.347Z,21.13
2018-09-03T17:52:20.487Z,22.80
2018-09-03T17:54:50.912Z,24.70
2018-09-03T17:57:19.240Z,24.40
2018-09-03T17:59:47.552Z,24.20
2018-09-03T18:02:16.790Z,20.57
2018-09-03T18:04:45.854Z,22.60
2018-09-03T18:07:15.221Z,20.60
2018-09-03T18:09:43.400Z,20.10
2018-09-03T18:12:13.686Z,19.53
2018-09-03T18:14:41.903Z,20.20
2018-09-03T18:17:10.532Z,20.70
2018-09-03T18:19:39.539Z,20.10
2018-09-03T18:22:08.764Z,22.40
2018-09-03T18:24:37.656Z,21.87
2018-09-03T18:27:06.803Z,20.10
2018-09-03T18:29:35.346Z,21.57
2018-09-03T18:32:04.567Z,24.20
2018-09-03T18:34:32.792Z,21.80
2018-09-03T18:37:01.132Z,20.70
2018-09-03T18:39:29.303Z,23.30
2018-09-03T18:41:58.050Z,22.40
2018-09-03T18:44:26.727Z,21.90
2018-09-03T18:46:54.987Z,24.20
2018-09-03T18:49:23.306Z,21.63
2018-09-03T18:51:51.611Z,22.80
2018-09-03T18:54:19.782Z,22.10
2018-09-03T18:56:48.041Z,20.77
2018-09-03T18:59:16.256Z,22.30
2018-09-03T19:01:44.511Z,21.90
2018-09-03T19:04:12.729Z,20.70
2018-09-03T19:06:41.027Z,20.50
2018-09-03T19:09:11.018Z,20.90
2018-09-03T19:11:39.487Z,22.10
2018-09-03T19:14:07.847Z,21.03
2018-09-03T19:16:36.051Z,21.27
2018-09-03T19:19:04.835Z,21.47
2018-09-03T19:21:33.240Z,21.47
2018-09-03T19:24:01.490Z,22.30
2018-09-03T19:26:29.714Z,22.20
2018-09-03T19:28:57.920Z,20.67
2018-09-03T19:31:26.159Z,21.43
2018-09-03T19:33:54.372Z,22.40
2018-09-03T19:36:22.636Z,22.47
2018-09-03T19:38:50.935Z,22.00
2018-09-03T19:41:19.140Z,25.20
2018-09-03T19:43:47.367Z,21.90
2018-09-03T19:46:15.768Z,23.50
2018-09-03T19:48:43.978Z,23.10
2018-09-03T19:51:12.161Z,22.00
2018-09-03T19:53:40.377Z,23.43
2018-09-03T19:56:08.603Z,24.87
2018-09-03T19:58:36.847Z,24.50
2018-09-03T20:01:05.872Z,23.50
2018-09-03T20:03:34.133Z,24.10
2018-09-03T20:06:02.754Z,23.53
2018-09-03T20:08:31.201Z,24.20
2018-09-03T20:10:59.466Z,23.30
2018-09-03T20:13:27.756Z,22.50
2018-09-03T20:15:55.931Z,26.40
2018-09-03T20:18:24.132Z,26.27
2018-09-03T20:20:52.318Z,25.20
2018-09-03T20:23:20.546Z,26.60
2018-09-03T20:25:48.677Z,24.80
2018-09-03T20:28:16.900Z,26.70
2018-09-03T20:30:45.179Z,24.90
2018-09-03T20:33:13.280Z,25.43
2018-09-03T20:35:41.484Z,25.40
2018-09-03T20:38:09.669Z,27.23
2018-09-03T20:40:37.868Z,26.93
2018-09-03T20:43:06.084Z,27.57
2018-09-03T20:45:34.260Z,27.83
2018-09-03T20:48:02.453Z,27.60
2018-09-03T20:50:30.635Z,27.80
2018-09-03T20:52:58.801Z,27.00
2018-09-03T20:55:26.997Z,27.67
2018-09-03T20:57:55.246Z,27.90
2018-09-03T21:00:23.432Z,27.87
2018-09-03T21:02:51.622Z,29.17
2018-09-03T21:05:19.814Z,29.77
2018-09-03T21:07:47.983Z,29.57
2018-09-03T21:10:16.167Z,30.30
2018-09-03T21:12:44.357Z,28.57
2018-09-03T21:15:12.540Z,28.60
2018-09-03T21:17:40.718Z,28.80
2018-09-03T21:20:08.895Z,32.23
2018-09-03T21:22:37.076Z,32.20
2018-09-03T21:25:05.271Z,30.43
2018-09-03T21:27:33.447Z,31.43
2018-09-03T21:30:01.624Z,30.70
2018-09-03T21:32:29.814Z,30.37
2018-09-03T21:34:58.003Z,29.40
2018-09-03T21:37:26.214Z,29.47
2018-09-03T21:39:54.466Z,31.93
2018-09-03T21:42:22.665Z,30.73
2018-09-03T21:44:50.852Z,29.00
2018-09-03T21:47:19.120Z,29.83
2018-09-03T21:49:47.298Z,28.50
2018-09-03T21:52:15.542Z,30.50
2018-09-03T21:54:43.728Z,33.63
2018-09-03T21:57:11.935Z,30.70
2018-09-03T21:59:40.132Z,28.37
2018-09-03T22:02:10.215Z,31.80
2018-09-03T22:04:39.945Z,31.37
2018-09-03T22:07:08.135Z,30.33
2018-09-03T22:09:36.328Z,32.03
2018-09-03T22:12:04.535Z,31.67
2018-09-03T22:14:32.751Z,31.77
2018-09-03T22:17:00.939Z,30.93
2018-09-03T22:19:29.126Z,33.30
2018-09-03T22:21:57.326Z,32.17
2018-09-03T22:24:25.588Z,33.37
2018-09-03T22:26:53.807Z,32.30
2018-09-03T22:29:22.002Z,32.83
2018-09-03T22:31:50.216Z,30.60
2018-09-03T22:34:18.396Z,31.50
2018-09-03T22:36:46.575Z,30.17
2018-09-03T22:39:14.763Z,31.37
2018-09-03T22:41:42.952Z,30.70
2018-09-03T22:44:11.131Z,31.10
2018-09-03T22:46:39.316Z,30.40
2018-09-03T22:49:07.735Z,31.10
2018-09-03T22:51:35.961Z,30.27
2018-09-03T22:54:04.141Z,29.77
2018-09-03T22:56:32.362Z,31.40
2018-09-03T22:59:00.544Z,35.63
2018-09-03T23:01:28.719Z,34.33
2018-09-03T23:03:56.891Z,32.40
2018-09-03T23:06:25.088Z,31.67
2018-09-03T23:08:53.263Z,31.70
2018-09-03T23:11:21.579Z,31.40
2018-09-03T23:13:49.640Z,32.27
2018-09-03T23:16:17.823Z,31.80
2018-09-03T23:18:46.001Z,32.17
2018-09-03T23:21:14.171Z,30.77
2018-09-03T23:23:42.346Z,36.50
2018-09-03T23:26:10.532Z,34.80
2018-09-03T23:28:38.733Z,35.07
2018-09-03T23:31:06.903Z,36.67
2018-09-03T23:33:35.091Z,34.47
2018-09-03T23:36:03.419Z,31.70
2018-09-03T23:38:31.611Z,33.20
2018-09-03T23:40:59.802Z,33.67
2018-09-03T23:43:27.983Z,34.50
2018-09-03T23:45:56.172Z,34.43
2018-09-03T23:48:24.343Z,37.10
2018-09-03T23:50:52.541Z,34.73
2018-09-03T23:53:20.729Z,31.67
2018-09-03T23:55:48.911Z,33.20
2018-09-03T23:58:17.114Z,34.40
